TFM - Tactical Decision Aid (Experimental) INFO Settings
ID: Runway Winds: CIG/VIS Threshold: METAR Board: Map:

KATL - Atlanta-Hartsfield Jackson Intl

Updated at: 2201 UTC 16 Oct 2017
Latest TAF at: 2153 UTC 16 Oct 2017

TAF Board

Time2152Z16/23Z17/00Z17/01Z17/02Z17/03Z17/04Z17/05Z17/06Z17/07Z17/08Z17/09Z17/10Z17/11Z
TypeOBSPRVLPRVLPRVLPRVLPRVLPRVLPRVLPRVLPRVLPRVLPRVLPRVLPRVL
VIS10>6>6>6>6>6>6>6>6>6>6>6>6>6
CIG----------------------------
CoverFEWFEWFEWFEWFEWFEWFEWFEWSKCSKCSKCSKCSKCSKC
FltCatVFRVFRVFRVFRVFRVFRVFRVFRVFRVFRVFRVFRVFRVFR
WX----------------------------
WDir3303403403030303030404040404040
WSpd1515151111111111777777
WGst--2020----------------------
TAF
KATL 162153Z 1622/1724 34015G20KT P6SM FEW250
  FM170100 03011KT P6SM FEW250
  FM170600 04007KT P6SM SKC
  FM171500 07012KT P6SM SKC
  FM172100 08008KT P6SM SKC


METAR
KATL 162152Z 33015KT 10SM FEW250 19/08 A3009 RMK AO2 SLP183 T01890078
KATL 162052Z 33012G19KT 10SM FEW250 20/08 A3009 RMK AO2 SLP183 T02000078 55009

TAF/METAR Board Legend

Potential Impact
  None Marginal Slight Moderate High
Visibility (sm) >5 3≤X≤5 1≤X<3 0.5≤X<1 <0.5
Ceiling (100 ft) >30 10≤X≤30 4≤X<10 2≤X<4 <2
Wind Speed (kt) <10 10≤X<20 20≤X<30 ≥30
Wind Gust (kt) <15 15≤X<25 25≤X<35 ≥35
Weather No Wx Reported VCTS -TS,-FZRA TS,FZRA +TS,+FZRA